Time;durP1;ratioP1;P1;durP2;ratioP2;P2;SDS_P1;SDS_P2;PMS_P1;PMS_P2;Temp;Humidity;BMP_temperature;BMP_pressure;BME280_temperature;BME280_humidity;BME280_pressure;Samples;Min_cycle;Max_cycle;Signal;HPM_P1;HPM_P2
2022/06/07 00:02:28;;;;;;;0.00;0.00;;;;;;;13.21;82.73;100188.34;5072288;28;20217;-73
2022/06/07 00:04:54;;;;;;;0.10;0.10;;;;;;;13.14;83.13;100182.53;5072193;28;20213;-71
2022/06/07 00:07:21;;;;;;;0.07;0.07;;;;;;;13.06;83.63;100186.16;5071833;28;20225;-72
2022/06/07 00:09:46;;;;;;;0.00;0.00;;;;;;;13.00;83.88;100185.53;5072152;28;20170;-73
2022/06/07 00:12:12;;;;;;;0.00;0.00;;;;;;;12.95;83.53;100184.94;5072133;28;20173;-72
2022/06/07 00:14:37;;;;;;;0.23;0.20;;;;;;;12.92;82.97;100177.41;5071834;28;20174;-72
2022/06/07 00:17:07;;;;;;;0.00;0.00;;;;;;;12.94;82.59;100173.19;5071576;28;20174;-72
2022/06/07 00:19:33;;;;;;;0.00;0.00;;;;;;;12.98;82.28;100163.13;5053630;28;20670;-72
2022/06/07 00:21:59;;;;;;;0.00;0.00;;;;;;;13.00;82.11;100168.28;5071939;28;20536;-72
2022/06/07 00:24:25;;;;;;;1.13;0.60;;;;;;;13.02;82.43;100163.28;5071859;28;20166;-72
2022/06/07 00:26:50;;;;;;;0.20;0.20;;;;;;;13.06;82.63;100162.28;5071549;28;20260;-72
2022/06/07 00:29:16;;;;;;;0.10;0.10;;;;;;;13.08;82.62;100159.19;5070860;28;20202;-72
2022/06/07 00:31:42;;;;;;;0.07;0.07;;;;;;;13.11;83.09;100156.59;5070705;28;20254;-72
2022/06/07 00:34:09;;;;;;;0.10;0.00;;;;;;;13.05;82.60;100165.38;5071588;28;20185;-72
2022/06/07 00:36:35;;;;;;;0.00;0.00;;;;;;;13.00;82.88;100147.16;5071258;28;20281;-72
2022/06/07 00:39:00;;;;;;;0.00;0.00;;;;;;;12.98;83.26;100157.66;5071100;28;20464;-72
2022/06/07 00:41:26;;;;;;;0.10;0.10;;;;;;;12.95;83.06;100149.31;5071416;28;20614;-73
2022/06/07 00:44:22;;;;;;;0.00;0.00;;;;;;;12.92;83.09;100158.19;5071261;28;20189;-72
2022/06/07 00:47:00;;;;;;;0.00;0.00;;;;;;;12.95;82.63;100155.59;5070763;28;20214;-72
2022/06/07 00:49:28;;;;;;;0.97;0.50;;;;;;;12.90;83.39;100144.81;5071066;28;20673;-72
2022/06/07 00:51:53;;;;;;;0.10;0.10;;;;;;;12.90;82.84;100153.06;5071043;28;20182;-72
2022/06/07 00:54:25;;;;;;;0.10;0.10;;;;;;;12.88;82.59;100149.84;5071179;28;20600;-72
2022/06/07 00:56:51;;;;;;;0.17;0.17;;;;;;;12.87;82.66;100148.22;5070924;28;20547;-72
2022/06/07 00:59:17;;;;;;;0.00;0.00;;;;;;;12.86;82.62;100151.28;5070795;28;20179;-73
2022/06/07 01:01:43;;;;;;;0.17;0.17;;;;;;;12.82;82.97;100145.69;5071072;28;20173;-72
2022/06/07 01:04:09;;;;;;;1.27;0.67;;;;;;;12.84;82.56;100146.16;5070965;28;20570;-72
2022/06/07 01:12:03;;;;;;;0.00;0.00;;;;;;;12.91;81.57;100153.84;5071230;28;20216;-72
2022/06/07 01:14:28;;;;;;;0.10;0.10;;;;;;;12.90;81.63;100158.53;5070961;28;20175;-73
2022/06/07 01:16:53;;;;;;;0.00;0.00;;;;;;;12.91;81.76;100146.44;5070586;28;20439;-72
2022/06/07 01:19:19;;;;;;;0.33;0.33;;;;;;;12.91;82.21;100149.19;5070343;28;20598;-72
2022/06/07 01:21:45;;;;;;;0.00;0.00;;;;;;;12.91;82.21;100149.19;5070676;28;20180;-72
2022/06/07 01:24:13;;;;;;;0.10;0.10;;;;;;;12.88;82.65;100149.03;5070638;28;20162;-73
2022/06/07 01:26:38;;;;;;;0.00;0.00;;;;;;;12.84;82.16;100145.34;5070206;28;20243;-72
2022/06/07 01:29:03;;;;;;;0.00;0.00;;;;;;;12.82;82.29;100140.19;5069934;28;20170;-72
2022/06/07 01:31:29;;;;;;;0.00;0.00;;;;;;;12.81;82.97;100144.06;5070453;28;20167;-72
2022/06/07 01:33:54;;;;;;;0.00;0.00;;;;;;;12.84;82.85;100139.88;5070732;28;20258;-71
2022/06/07 01:36:20;;;;;;;0.03;0.03;;;;;;;12.80;82.72;100143.28;5070567;28;20535;-72
2022/06/07 01:41:53;;;;;;;0.00;0.00;;;;;;;12.84;82.94;100143.41;5070192;28;20182;-72
2022/06/07 01:44:16;;;;;;;4.37;0.30;;;;;;;12.79;83.19;100138.13;5070392;28;20219;-72
2022/06/07 01:46:41;;;;;;;0.10;0.10;;;;;;;12.80;82.75;100131.50;5070033;28;20206;-71
2022/06/07 01:49:07;;;;;;;0.00;0.00;;;;;;;12.80;82.04;100129.56;5070268;28;20182;-72
2022/06/07 01:51:32;;;;;;;0.00;0.00;;;;;;;12.84;82.29;100126.94;5070457;28;20166;-72
2022/06/07 01:53:57;;;;;;;0.00;0.00;;;;;;;12.86;82.50;100129.34;5070588;28;20191;-72
2022/06/07 01:56:23;;;;;;;0.93;0.73;;;;;;;12.85;82.20;100128.56;5070251;28;20178;-72
2022/06/07 01:58:48;;;;;;;0.10;0.00;;;;;;;12.85;82.88;100139.53;5069992;28;20179;-72
2022/06/07 02:01:14;;;;;;;0.13;0.13;;;;;;;12.81;82.83;100128.44;5070244;28;20182;-71
2022/06/07 02:03:40;;;;;;;0.00;0.00;;;;;;;12.81;82.72;100127.63;5070311;28;20178;-73
2022/06/07 02:06:08;;;;;;;0.00;0.00;;;;;;;12.79;83.53;100124.41;5070398;28;20174;-72
2022/06/07 02:08:37;;;;;;;0.10;0.10;;;;;;;12.79;83.79;100127.16;5069965;28;20607;-72
2022/06/07 02:11:08;;;;;;;0.30;0.30;;;;;;;12.78;83.49;100126.38;5070102;28;20260;-72
2022/06/07 02:13:35;;;;;;;0.00;0.00;;;;;;;12.77;83.57;100130.25;5070213;28;20171;-72
2022/06/07 02:16:01;;;;;;;0.00;0.00;;;;;;;12.79;84.33;100135.38;5070204;28;20210;-72
2022/06/07 02:18:27;;;;;;;0.00;0.00;;;;;;;12.82;84.15;100127.28;5070280;28;20210;-71
2022/06/07 02:20:54;;;;;;;0.33;0.20;;;;;;;12.84;84.16;100135.19;5070303;28;20179;-72
2022/06/07 02:23:19;;;;;;;0.00;0.00;;;;;;;12.87;84.75;100131.75;5070309;28;20336;-72
2022/06/07 02:25:49;;;;;;;0.40;0.40;;;;;;;12.86;84.76;100135.66;5070178;28;20567;-71
2022/06/07 02:28:16;;;;;;;0.33;0.20;;;;;;;12.87;84.99;100139.19;5069194;28;20241;-73
2022/06/07 02:30:44;;;;;;;0.10;0.10;;;;;;;12.90;85.10;100131.13;5070010;28;20593;-72
2022/06/07 02:33:10;;;;;;;0.00;0.00;;;;;;;12.91;85.19;100124.50;5070164;28;20562;-73
2022/06/07 02:35:39;;;;;;;0.00;0.00;;;;;;;12.92;85.67;100126.09;5069920;28;20186;-72
2022/06/07 02:38:05;;;;;;;0.00;0.00;;;;;;;12.95;85.98;100119.13;5069800;28;20186;-72
2022/06/07 02:40:30;;;;;;;0.10;0.10;;;;;;;13.01;85.63;100121.31;5070049;28;20183;-72
2022/06/07 02:42:55;;;;;;;0.00;0.00;;;;;;;13.06;85.74;100117.59;5070135;28;20194;-72
2022/06/07 02:45:21;;;;;;;0.10;0.10;;;;;;;13.06;85.43;100112.91;5069954;28;20240;-72
2022/06/07 02:47:46;;;;;;;0.10;0.10;;;;;;;13.06;85.08;100112.13;5069445;28;20241;-72
2022/06/07 02:50:12;;;;;;;0.00;0.00;;;;;;;13.06;85.19;100117.59;5069841;28;20262;-73
2022/06/07 02:52:37;;;;;;;0.60;0.43;;;;;;;13.02;85.27;100116.66;5070042;28;20219;-71
2022/06/07 02:55:04;;;;;;;0.37;0.33;;;;;;;13.00;85.59;100108.75;5072072;28;20171;-71
2022/06/07 02:57:29;;;;;;;0.10;0.10;;;;;;;13.01;85.01;100113.09;5073177;28;20182;-72
2022/06/07 02:59:54;;;;;;;0.10;0.10;;;;;;;12.97;85.68;100112.16;5073601;28;20177;-72
2022/06/07 03:02:20;;;;;;;0.20;0.20;;;;;;;12.98;85.32;100110.22;5073551;28;20171;-72
2022/06/07 03:04:45;;;;;;;0.10;0.03;;;;;;;12.98;85.60;100099.25;5073465;28;20708;-72
2022/06/07 03:07:12;;;;;;;0.37;0.37;;;;;;;12.97;85.93;100092.97;5073271;28;20194;-72
2022/06/07 03:09:37;;;;;;;0.00;0.00;;;;;;;12.96;85.77;100105.09;5073040;28;20530;-72
2022/06/07 03:12:03;;;;;;;0.63;0.50;;;;;;;13.01;85.39;100099.38;5073375;28;20169;-73
2022/06/07 03:14:28;;;;;;;0.17;0.17;;;;;;;13.05;84.77;100110.50;5073149;28;20181;-72
2022/06/07 03:16:53;;;;;;;0.33;0.33;;;;;;;13.04;84.92;100112.44;5072968;28;20174;-71
2022/06/07 03:19:19;;;;;;;7.30;1.53;;;;;;;13.07;84.58;100114.50;5072632;28;20177;-72
2022/06/07 03:21:44;;;;;;;8.70;1.00;;;;;;;13.10;85.05;100111.09;5073156;28;20175;-72
2022/06/07 03:24:09;;;;;;;0.00;0.00;;;;;;;13.13;84.73;100106.88;5073001;28;20492;-72
2022/06/07 03:26:35;;;;;;;0.40;0.40;;;;;;;13.13;84.50;100112.34;5072987;28;20225;-72
2022/06/07 03:29:00;;;;;;;0.50;0.50;;;;;;;13.11;85.03;100104.47;5072323;28;20179;-72
2022/06/07 03:31:26;;;;;;;0.10;0.10;;;;;;;13.12;85.19;100105.28;5072668;28;20630;-72
2022/06/07 03:33:51;;;;;;;0.00;0.00;;;;;;;13.17;84.60;100098.78;5072823;28;20250;-72
2022/06/07 03:36:25;;;;;;;0.23;0.23;;;;;;;13.19;85.18;100102.03;5072738;28;20267;-72
2022/06/07 03:38:52;;;;;;;0.00;0.00;;;;;;;13.23;85.38;100094.72;5072366;28;20205;-72
2022/06/07 03:41:21;;;;;;;0.00;0.00;;;;;;;13.24;85.26;100097.13;5072794;28;20175;-72
2022/06/07 03:43:47;;;;;;;0.00;0.00;;;;;;;13.26;85.16;100092.09;5072704;28;20511;-72
2022/06/07 03:46:16;;;;;;;0.00;0.00;;;;;;;13.26;85.90;100094.03;5072581;28;20277;-72
2022/06/07 03:48:42;;;;;;;0.00;0.00;;;;;;;13.27;85.98;100085.47;5072023;28;20599;-72
2022/06/07 03:51:09;;;;;;;0.00;0.00;;;;;;;13.27;85.98;100090.97;5072721;28;20183;-73
2022/06/07 03:53:35;;;;;;;0.00;0.00;;;;;;;13.26;86.05;100088.56;5072639;28;20182;-72
2022/06/07 03:56:01;;;;;;;0.00;0.00;;;;;;;13.18;86.57;100092.16;5072440;28;20183;-72
2022/06/07 03:58:27;;;;;;;0.00;0.00;;;;;;;13.14;87.46;100088.47;5072041;28;20605;-72
2022/06/07 04:00:56;;;;;;;0.00;0.00;;;;;;;13.14;87.54;100089.28;5072462;28;20179;-72
2022/06/07 04:03:22;;;;;;;0.30;0.30;;;;;;;13.11;87.91;100088.00;5072356;28;20186;-72
2022/06/07 04:05:48;;;;;;;0.00;0.00;;;;;;;13.12;87.72;100086.06;5072657;28;20198;-72
2022/06/07 04:08:14;;;;;;;0.00;0.00;;;;;;;13.08;87.71;100083.22;5071573;28;20205;-72
2022/06/07 04:10:58;;;;;;;0.13;0.13;;;;;;;12.98;88.58;100083.59;5072248;28;20174;-72
2022/06/07 04:13:26;;;;;;;0.00;0.00;;;;;;;12.96;89.39;100079.59;5072201;28;20163;-72
2022/06/07 04:15:52;;;;;;;0.00;0.00;;;;;;;13.02;88.96;100084.56;5072249;28;20174;-71
2022/06/07 04:18:18;;;;;;;0.00;0.00;;;;;;;13.00;89.18;100083.28;5071720;28;20175;-73
2022/06/07 04:20:44;;;;;;;8.20;0.93;;;;;;;13.04;88.97;100087.78;5072023;28;20206;-72
2022/06/07 04:23:15;;;;;;;0.00;0.00;;;;;;;13.10;88.73;100085.59;5072186;28;20190;-72
2022/06/07 04:25:41;;;;;;;0.10;0.10;;;;;;;13.08;89.06;100085.16;5071915;28;20178;-72
2022/06/07 04:28:07;;;;;;;0.40;0.40;;;;;;;13.13;88.71;100084.13;5070676;28;20198;-72
2022/06/07 04:30:33;;;;;;;0.40;0.40;;;;;;;13.12;88.89;100080.59;5071770;28;20304;-72
2022/06/07 04:32:59;;;;;;;0.00;0.00;;;;;;;13.15;88.67;100077.16;5072026;28;20171;-72
2022/06/07 04:35:24;;;;;;;0.00;0.00;;;;;;;13.21;89.04;100073.13;5071920;28;20252;-73
2022/06/07 04:37:50;;;;;;;0.00;0.00;;;;;;;13.32;88.78;100079.78;5071591;28;20671;-72
2022/06/07 04:40:16;;;;;;;0.10;0.10;;;;;;;13.47;88.24;100074.78;5071811;28;20185;-72
2022/06/07 04:42:43;;;;;;;3.83;1.17;;;;;;;13.60;86.71;100079.97;5071800;28;20254;-74
2022/06/07 04:45:14;;;;;;;0.10;0.10;;;;;;;13.72;86.47;100083.84;5072039;28;20171;-73
2022/06/07 04:47:43;;;;;;;0.77;0.67;;;;;;;13.82;85.62;100077.94;5070854;28;20202;-72
2022/06/07 04:50:11;;;;;;;0.10;0.10;;;;;;;13.91;85.16;100082.19;5071421;28;20182;-72
2022/06/07 04:52:37;;;;;;;0.10;0.03;;;;;;;13.98;84.69;100079.66;5071594;28;20186;-72
2022/06/07 04:55:03;;;;;;;2.20;2.03;;;;;;;14.05;84.41;100081.84;5071684;28;20167;-72
2022/06/07 04:57:30;;;;;;;0.10;0.10;;;;;;;14.13;84.01;100071.88;5071245;28;20171;-73
2022/06/07 04:59:55;;;;;;;0.20;0.20;;;;;;;14.19;83.95;100074.06;5071581;28;20662;-73
2022/06/07 05:02:21;;;;;;;2.63;0.40;;;;;;;14.24;83.76;100076.56;5067225;28;20197;-72
2022/06/07 05:04:47;;;;;;;0.10;0.10;;;;;;;14.33;83.67;100076.44;5071676;28;20174;-72
2022/06/07 05:07:13;;;;;;;0.43;0.43;;;;;;;14.43;82.97;100078.69;5076771;28;20597;-72
2022/06/07 05:09:38;;;;;;;0.20;0.20;;;;;;;14.50;83.07;100070.72;5081661;28;20204;-72
2022/06/07 05:12:04;;;;;;;0.20;0.20;;;;;;;14.58;81.97;100078.00;5071733;28;20182;-72
2022/06/07 05:14:30;;;;;;;0.10;0.10;;;;;;;14.69;81.29;100081.09;5058638;28;20183;-72
2022/06/07 05:16:57;;;;;;;0.87;0.87;;;;;;;14.75;81.57;100084.38;5078661;28;20485;-72
2022/06/07 05:19:23;;;;;;;0.30;0.30;;;;;;;14.81;81.21;100081.06;5075423;28;20175;-72
2022/06/07 05:21:48;;;;;;;0.33;0.33;;;;;;;14.87;81.05;100076.09;5071622;28;20175;-73
2022/06/07 05:24:14;;;;;;;0.13;0.13;;;;;;;14.91;80.21;100079.78;5070912;28;20180;-72
2022/06/07 05:26:39;;;;;;;0.83;0.60;;;;;;;14.96;79.48;100075.97;5070518;28;20185;-72
2022/06/07 05:29:06;;;;;;;0.27;0.27;;;;;;;15.05;79.29;100079.38;5069944;28;20174;-71
2022/06/07 05:31:32;;;;;;;0.57;0.57;;;;;;;15.07;78.15;100075.13;5070618;28;20243;-72
2022/06/07 05:33:57;;;;;;;0.80;0.60;;;;;;;15.08;77.87;100075.91;5070750;28;20618;-72
2022/06/07 05:36:23;;;;;;;0.27;0.27;;;;;;;15.10;77.32;100085.44;5070681;28;20179;-72
2022/06/07 05:38:49;;;;;;;0.37;0.37;;;;;;;15.18;77.18;100084.44;5070192;28;20175;-69
2022/06/07 05:41:20;;;;;;;0.40;0.40;;;;;;;15.24;76.41;100084.22;5070703;28;20187;-72
2022/06/07 05:43:45;;;;;;;0.00;0.00;;;;;;;15.31;76.92;100078.91;5071016;28;20198;-71
2022/06/07 05:46:11;;;;;;;0.80;0.50;;;;;;;15.32;76.71;100081.28;5069875;28;20594;-72
2022/06/07 05:48:36;;;;;;;0.10;0.10;;;;;;;15.39;76.73;100077.94;5070157;28;20208;-72
2022/06/07 05:51:02;;;;;;;1.03;0.93;;;;;;;15.43;76.49;100082.38;5070606;28;20170;-72
2022/06/07 05:53:27;;;;;;;0.30;0.30;;;;;;;15.45;75.92;100079.28;5070508;28;20185;-71
2022/06/07 05:55:54;;;;;;;0.47;0.47;;;;;;;15.47;76.24;100083.28;5070496;28;20236;-71
2022/06/07 05:58:20;;;;;;;0.30;0.30;;;;;;;15.53;76.08;100077.53;5070010;28;20206;-72
2022/06/07 06:00:46;;;;;;;0.70;0.70;;;;;;;15.53;75.68;100080.28;5070437;28;20210;-71
2022/06/07 06:03:12;;;;;;;1.17;1.07;;;;;;;15.52;76.04;100082.22;5070505;28;20642;-71
2022/06/07 06:05:44;;;;;;;0.90;0.70;;;;;;;15.56;75.78;100085.06;5070645;28;20181;-72
2022/06/07 06:11:09;;;;;;;1.00;0.80;;;;;;;15.72;74.36;100072.13;5070294;28;20177;-72
2022/06/07 06:13:35;;;;;;;0.20;0.20;;;;;;;15.76;74.82;100081.28;5070253;28;20178;-72
2022/06/07 06:16:14;;;;;;;0.63;0.63;;;;;;;15.89;75.51;100073.75;5070211;28;20193;-72
2022/06/07 06:18:42;;;;;;;0.10;0.10;;;;;;;15.92;74.84;100073.06;5069836;28;20192;-72
2022/06/07 06:21:08;;;;;;;0.70;0.70;;;;;;;16.01;74.96;100071.69;5070226;28;20177;-72
2022/06/07 06:23:34;;;;;;;4.63;0.77;;;;;;;16.08;74.34;100073.03;5069989;28;20174;-72
2022/06/07 06:25:59;;;;;;;0.90;0.90;;;;;;;16.10;72.83;100077.03;5070241;28;20224;-72
2022/06/07 06:28:25;;;;;;;0.87;0.37;;;;;;;16.16;73.25;100072.03;5068515;28;20669;-72
2022/06/07 06:30:52;;;;;;;0.17;0.17;;;;;;;16.16;72.88;100072.03;5073465;28;20177;-72
2022/06/07 06:33:18;;;;;;;1.13;1.13;;;;;;;16.26;72.30;100071.50;5073824;28;20170;-72
2022/06/07 06:35:51;;;;;;;0.30;0.30;;;;;;;16.33;71.73;100077.16;5073814;28;20167;-72
2022/06/07 06:38:18;;;;;;;2.37;0.60;;;;;;;16.36;72.19;100071.75;5073498;28;20252;-72
2022/06/07 06:40:45;;;;;;;0.50;0.50;;;;;;;16.37;71.23;100075.28;5073738;28;20174;-72
2022/06/07 06:43:11;;;;;;;1.33;0.70;;;;;;;16.41;70.51;100073.41;5073630;28;20257;-72
2022/06/07 06:45:37;;;;;;;0.80;0.80;;;;;;;16.42;70.51;100074.22;5073755;28;20163;-72
2022/06/07 06:48:02;;;;;;;0.60;0.50;;;;;;;16.50;71.01;100071.25;5073094;28;20222;-71
2022/06/07 06:50:28;;;;;;;1.37;1.00;;;;;;;16.51;69.26;100067.34;5073783;28;20171;-72
2022/06/07 06:52:53;;;;;;;0.13;0.13;;;;;;;16.54;68.43;100072.13;5073526;28;20174;-74
2022/06/07 06:55:18;;;;;;;0.23;0.23;;;;;;;16.66;69.34;100072.00;5055713;28;20174;-74
2022/06/07 06:57:44;;;;;;;0.10;0.10;;;;;;;16.75;66.72;100073.78;5073212;28;20209;-74
2022/06/07 07:00:10;;;;;;;0.73;0.63;;;;;;;16.82;67.31;100087.72;5073453;28;20167;-74
2022/06/07 07:02:35;;;;;;;0.30;0.30;;;;;;;16.71;64.23;100087.50;5055359;28;20182;-75
2022/06/07 07:05:00;;;;;;;0.00;0.00;;;;;;;16.71;64.97;100081.97;5073508;28;20626;-74
2022/06/07 07:07:26;;;;;;;0.27;0.27;;;;;;;16.77;64.43;100085.25;5072967;28;20228;-74
2022/06/07 07:09:54;;;;;;;4.20;0.40;;;;;;;16.78;63.68;100084.06;5073206;28;20261;-74
2022/06/07 07:12:19;;;;;;;0.60;0.40;;;;;;;16.88;64.07;100089.03;5073112;28;20767;-73
2022/06/07 07:14:46;;;;;;;0.00;0.00;;;;;;;16.90;63.31;100084.75;5073094;28;20182;-80
2022/06/07 07:17:11;;;;;;;0.60;0.60;;;;;;;16.93;64.15;100095.06;5072828;28;20178;-73
2022/06/07 07:19:36;;;;;;;0.40;0.40;;;;;;;17.00;63.76;100088.91;5072986;28;20229;-72
2022/06/07 07:22:02;;;;;;;0.20;0.20;;;;;;;17.04;63.51;100092.50;5072997;28;20533;-72
2022/06/07 07:24:27;;;;;;;0.50;0.50;;;;;;;17.07;63.00;100100.09;5072972;28;20188;-73
2022/06/07 07:26:53;;;;;;;0.57;0.30;;;;;;;16.99;62.85;100084.53;5072609;28;20198;-72
2022/06/07 07:29:21;;;;;;;0.43;0.43;;;;;;;17.09;63.62;100085.94;5071485;28;20647;-72
2022/06/07 07:31:46;;;;;;;0.93;0.80;;;;;;;17.04;63.71;100080.69;5072802;28;20170;-72
2022/06/07 07:34:14;;;;;;;0.00;0.00;;;;;;;17.20;64.00;100084.16;5072915;28;20631;-72
2022/06/07 07:36:46;;;;;;;0.53;0.13;;;;;;;17.33;63.14;100076.50;5072514;28;20181;-72
2022/06/07 07:39:12;;;;;;;3.70;2.30;;;;;;;17.34;62.79;100080.88;5072327;28;20190;-72
2022/06/07 07:41:40;;;;;;;0.13;0.13;;;;;;;17.40;62.48;100079.41;5072199;28;20179;-73
2022/06/07 07:44:07;;;;;;;0.23;0.23;;;;;;;17.56;62.71;100080.09;5072541;28;20224;-72
2022/06/07 07:46:35;;;;;;;0.63;0.60;;;;;;;17.52;62.08;100087.53;5072164;28;20213;-72
2022/06/07 07:49:02;;;;;;;1.20;0.60;;;;;;;17.44;61.69;100083.84;5072236;28;20182;-72
2022/06/07 07:51:31;;;;;;;0.27;0.20;;;;;;;17.39;60.84;100078.63;5072468;28;20795;-72
2022/06/07 07:53:59;;;;;;;0.27;0.20;;;;;;;17.52;61.25;100082.81;5072407;28;20197;-72
2022/06/07 07:56:25;;;;;;;0.00;0.00;;;;;;;17.67;61.62;100078.34;5072323;28;20267;-72
2022/06/07 07:58:52;;;;;;;0.30;0.30;;;;;;;17.82;61.54;100082.97;5053839;28;20182;-72
2022/06/07 08:01:23;;;;;;;2.67;0.40;;;;;;;17.87;60.97;100072.78;5072202;28;20516;-72
2022/06/07 08:03:49;;;;;;;1.10;0.50;;;;;;;17.89;61.43;100074.00;5072282;28;20623;-72
2022/06/07 08:06:17;;;;;;;0.10;0.10;;;;;;;17.97;61.76;100078.47;5072082;28;20190;-72
2022/06/07 08:08:47;;;;;;;0.30;0.30;;;;;;;18.04;60.56;100072.25;5071529;28;20202;-72
2022/06/07 08:11:13;;;;;;;0.83;0.83;;;;;;;18.12;60.87;100063.72;5072069;28;20182;-72
2022/06/07 08:13:39;;;;;;;0.60;0.60;;;;;;;18.08;59.52;100064.81;5071960;28;20170;-72
2022/06/07 08:16:06;;;;;;;5.50;0.60;;;;;;;17.99;58.11;100070.63;5072033;28;20619;-72
2022/06/07 08:18:32;;;;;;;0.30;0.30;;;;;;;17.92;58.65;100076.00;5071486;28;20585;-73
2022/06/07 08:21:01;;;;;;;0.53;0.30;;;;;;;18.04;58.67;100069.50;5071880;28;20179;-73
2022/06/07 08:23:28;;;;;;;0.00;0.00;;;;;;;18.20;58.05;100070.13;5071929;28;20187;-73
2022/06/07 08:25:58;;;;;;;0.30;0.30;;;;;;;18.33;57.96;100079.03;5071638;28;20216;-72
2022/06/07 08:28:24;;;;;;;4.60;0.83;;;;;;;18.27;57.23;100075.78;5070342;28;20668;-73
2022/06/07 08:30:49;;;;;;;0.10;0.10;;;;;;;18.34;56.56;100064.81;5071597;28;20261;-73
2022/06/07 08:38:43;;;;;;;0.23;0.23;;;;;;;18.52;55.86;100062.34;5071366;28;20250;-73
2022/06/07 08:41:30;;;;;;;0.20;0.20;;;;;;;18.70;55.49;100059.81;5071318;28;20649;-73
2022/06/07 08:44:11;;;;;;;0.00;0.00;;;;;;;18.82;55.91;100065.13;5068113;28;20170;-73
2022/06/07 08:46:38;;;;;;;0.33;0.33;;;;;;;19.03;54.07;100067.34;5071042;28;20519;-72
2022/06/07 08:49:05;;;;;;;0.83;0.50;;;;;;;18.93;52.45;100065.25;5071107;28;20171;-72
2022/06/07 08:51:45;;;;;;;0.17;0.17;;;;;;;18.97;52.92;100066.09;5070231;28;20171;-72
2022/06/07 08:54:17;;;;;;;3.93;0.30;;;;;;;19.13;53.49;100065.88;5071114;28;20216;-72
2022/06/07 08:56:44;;;;;;;0.03;0.03;;;;;;;19.15;52.92;100056.03;5071084;28;20166;-73
2022/06/07 08:59:14;;;;;;;0.10;0.10;;;;;;;19.17;51.28;100050.91;5070912;28;20167;-72
2022/06/07 09:01:43;;;;;;;0.30;0.30;;;;;;;19.28;52.71;100042.72;5070940;28;20159;-73
2022/06/07 09:04:12;;;;;;;0.00;0.00;;;;;;;19.23;51.28;100045.78;5070702;28;20323;-72
2022/06/07 09:06:42;;;;;;;0.00;0.00;;;;;;;19.42;51.36;100050.38;5070551;28;20182;-73
2022/06/07 09:09:10;;;;;;;0.30;0.20;;;;;;;19.43;50.98;100043.66;5070794;28;20202;-73
2022/06/07 09:14:42;;;;;;;0.20;0.20;;;;;;;19.57;52.08;100033.53;5070979;28;20240;-72
2022/06/07 09:17:28;;;;;;;7.40;0.57;;;;;;;19.75;53.06;100038.41;5070976;28;20171;-72
2022/06/07 09:19:54;;;;;;;0.23;0.10;;;;;;;19.89;51.16;100046.84;5070795;28;20182;-72
2022/06/07 09:22:25;;;;;;;1.40;0.50;;;;;;;19.96;51.95;100035.81;5070639;28;20174;-73
2022/06/07 09:25:15;;;;;;;0.00;0.00;;;;;;;20.01;51.44;100027.16;5071109;28;20171;-73
2022/06/07 09:27:41;;;;;;;13.87;1.77;;;;;;;20.03;50.99;100030.31;5068955;28;20226;-73
2022/06/07 09:30:24;;;;;;;3.80;0.67;;;;;;;20.13;50.77;100024.06;5070679;28;20198;-72
2022/06/07 09:32:51;;;;;;;0.07;0.07;;;;;;;20.11;50.17;100022.88;5070535;28;20202;-73
2022/06/07 09:35:41;;;;;;;0.60;0.47;;;;;;;20.31;49.86;100023.38;5052537;28;20503;-73
2022/06/07 09:38:27;;;;;;;0.20;0.20;;;;;;;20.38;49.06;100026.19;5069940;28;20618;-73
2022/06/07 09:40:53;;;;;;;0.30;0.30;;;;;;;20.54;49.73;100026.69;5070674;28;20220;-73
2022/06/07 09:43:23;;;;;;;0.93;0.40;;;;;;;20.44;48.91;100022.69;5070572;28;20727;-72
2022/06/07 09:45:56;;;;;;;0.00;0.00;;;;;;;20.44;48.00;100028.25;5070429;28;20255;-72
2022/06/07 09:48:26;;;;;;;0.10;0.10;;;;;;;20.64;48.94;100027.94;5069675;28;20203;-72
2022/06/07 09:50:58;;;;;;;2.30;1.00;;;;;;;20.43;47.80;100023.09;5070277;28;20254;-73
2022/06/07 09:53:24;;;;;;;7.43;0.57;;;;;;;20.59;47.61;100020.00;5070343;28;20185;-73
2022/06/07 09:56:18;;;;;;;8.40;0.30;;;;;;;20.59;47.94;100008.88;5070337;28;20166;-73
2022/06/07 09:59:12;;;;;;;4.33;0.50;;;;;;;20.57;47.06;100017.59;5069904;28;20239;-73
2022/06/07 10:01:55;;;;;;;0.03;0.03;;;;;;;20.74;47.33;100022.44;5070407;28;20191;-73
2022/06/07 10:04:39;;;;;;;1.10;0.30;;;;;;;20.64;46.56;100014.06;5073189;28;20175;-72
2022/06/07 10:07:13;;;;;;;1.67;0.50;;;;;;;20.53;46.51;100019.53;5074015;28;20202;-73
2022/06/07 10:09:50;;;;;;;0.20;0.20;;;;;;;20.55;46.45;100016.41;5074160;28;20201;-72
2022/06/07 10:12:53;;;;;;;0.27;0.27;;;;;;;20.69;46.99;100022.03;5074270;28;20170;-72
2022/06/07 10:15:37;;;;;;;0.50;0.37;;;;;;;20.73;45.55;100015.28;5073088;28;20657;-74
2022/06/07 10:18:13;;;;;;;3.50;0.30;;;;;;;21.05;45.61;100020.16;5073811;28;20178;-73
2022/06/07 10:21:03;;;;;;;0.30;0.30;;;;;;;21.01;44.84;100011.03;5074138;28;20170;-73
2022/06/07 10:23:43;;;;;;;3.50;0.30;;;;;;;21.00;43.56;100015.00;5073871;28;20170;-73
2022/06/07 10:26:30;;;;;;;2.07;0.53;;;;;;;21.01;45.26;100024.91;5074003;28;20178;-73
2022/06/07 10:29:18;;;;;;;0.47;0.47;;;;;;;21.02;44.33;100018.97;5072282;28;20239;-72
2022/06/07 10:31:47;;;;;;;1.50;0.93;;;;;;;20.96;45.10;100022.50;5074322;28;20173;-73
2022/06/07 10:34:45;;;;;;;1.13;0.23;;;;;;;20.88;44.72;100020.91;5073560;28;20187;-73
2022/06/07 10:37:29;;;;;;;0.10;0.03;;;;;;;21.26;44.57;100019.44;5071191;28;20191;-73
2022/06/07 10:40:01;;;;;;;0.27;0.27;;;;;;;21.43;43.93;100004.78;5073498;28;20179;-72
2022/06/07 10:42:36;;;;;;;0.20;0.20;;;;;;;21.28;44.97;100008.75;5087247;28;20205;-73
2022/06/07 10:45:18;;;;;;;0.40;0.40;;;;;;;21.21;45.70;100014.25;5073375;28;20183;-74
2022/06/07 10:47:56;;;;;;;4.70;0.50;;;;;;;21.29;44.61;100011.13;5072574;28;20206;-73
2022/06/07 10:51:01;;;;;;;0.37;0.33;;;;;;;21.69;44.62;100018.28;5073357;28;20308;-73
2022/06/07 10:53:40;;;;;;;0.10;0.10;;;;;;;21.77;43.65;100024.66;5049810;28;20670;-73
2022/06/07 10:56:13;;;;;;;0.37;0.37;;;;;;;21.44;43.60;100013.91;5073333;28;20174;-72
2022/06/07 10:58:41;;;;;;;0.00;0.00;;;;;;;21.69;45.16;100015.50;5072530;28;20183;-72
2022/06/07 11:01:16;;;;;;;0.20;0.20;;;;;;;21.77;45.08;100027.44;5072954;28;20181;-72
2022/06/07 11:10:23;;;;;;;0.27;0.23;;;;;;;21.16;44.68;100014.63;5067350;28;20173;-73
2022/06/07 11:13:07;;;;;;;0.10;0.10;;;;;;;21.04;45.00;100018.56;5072741;28;20175;-73
2022/06/07 11:15:41;;;;;;;0.57;0.57;;;;;;;21.06;45.59;100010.63;5072096;28;20175;-73
2022/06/07 11:18:14;;;;;;;0.33;0.33;;;;;;;21.27;44.91;100018.28;5071885;28;20174;-72
2022/06/07 11:20:50;;;;;;;3.47;0.30;;;;;;;21.11;43.89;100010.25;5072694;28;20180;-73
2022/06/07 11:23:25;;;;;;;0.23;0.23;;;;;;;21.28;42.71;100001.19;5072672;28;20205;-73
2022/06/07 11:26:04;;;;;;;0.33;0.33;;;;;;;21.30;43.66;100007.16;5072684;28;20213;-73
2022/06/07 11:28:38;;;;;;;0.10;0.10;;;;;;;21.36;44.65;100013.91;5070554;28;20685;-74
2022/06/07 11:31:41;;;;;;;1.97;0.47;;;;;;;21.62;44.13;100009.94;5072619;28;20170;-73
2022/06/07 11:34:23;;;;;;;0.13;0.13;;;;;;;21.69;43.70;99987.69;5072377;28;20214;-73
2022/06/07 11:36:51;;;;;;;0.20;0.20;;;;;;;21.84;44.09;99987.69;5072147;28;20713;-73
2022/06/07 11:39:22;;;;;;;0.30;0.30;;;;;;;22.10;44.40;100000.41;5072045;28;20469;-73
2022/06/07 11:42:28;;;;;;;0.63;0.30;;;;;;;22.26;44.73;99992.41;5069098;28;20197;-73
2022/06/07 11:45:03;;;;;;;0.40;0.40;;;;;;;22.28;44.80;99995.63;5071345;28;20192;-72
2022/06/07 11:47:55;;;;;;;0.30;0.30;;;;;;;22.28;43.66;99990.06;5086123;28;20219;-73
2022/06/07 11:50:29;;;;;;;0.60;0.50;;;;;;;21.91;42.93;99977.38;5065927;28;20215;-72
2022/06/07 11:53:19;;;;;;;0.40;0.40;;;;;;;21.99;44.17;99989.28;5072178;28;20194;-72
2022/06/07 11:55:46;;;;;;;0.20;0.20;;;;;;;21.70;44.83;99980.19;5074682;28;20190;-73
2022/06/07 11:58:11;;;;;;;0.10;0.10;;;;;;;21.63;46.06;99982.94;5067383;28;20241;-73
2022/06/07 12:00:42;;;;;;;0.00;0.00;;;;;;;21.89;47.01;99978.97;5072487;28;20176;-73
2022/06/07 12:03:08;;;;;;;1.90;0.30;;;;;;;22.01;45.74;99975.75;5084392;28;20599;-73
2022/06/07 12:05:47;;;;;;;0.40;0.40;;;;;;;21.98;45.73;99971.78;5072226;28;20176;-73